Time;durP1;ratioP1;P1;durP2;ratioP2;P2;SDS_P1;SDS_P2;PMS_P1;PMS_P2;Temp;Humidity;BMP_temperature;BMP_pressure;BME280_temperature;BME280_humidity;BME280_pressure;Samples;Min_cycle;Max_cycle;Signal;HPM_P1;HPM_P2
2023/05/29 00:00:17;;;;;;;2.75;0.35;;;21.30;68.10;;;;;;7398332;19;19998;-63
2023/05/29 00:02:49;;;;;;;3.05;0.73;;;21.30;68.20;;;;;;7407129;19;19918;-61
2023/05/29 00:05:20;;;;;;;2.92;0.70;;;21.30;68.20;;;;;;7407391;19;19915;-62
2023/05/29 00:07:50;;;;;;;1.88;0.43;;;21.30;68.30;;;;;;7407329;19;19986;-62
2023/05/29 00:10:19;;;;;;;1.95;0.82;;;21.20;68.20;;;;;;7406466;19;19918;-61
2023/05/29 00:12:48;;;;;;;1.20;0.28;;;21.20;68.30;;;;;;7402006;19;19918;-62
2023/05/29 00:15:17;;;;;;;2.15;0.75;;;21.20;68.30;;;;;;7383539;19;19928;-62
2023/05/29 00:17:49;;;;;;;1.98;0.40;;;21.20;68.30;;;;;;7404445;19;19939;-62
2023/05/29 00:20:18;;;;;;;2.97;0.43;;;21.20;68.30;;;;;;7407078;19;20356;-62
2023/05/29 00:22:47;;;;;;;2.30;0.50;;;21.10;68.30;;;;;;7407256;19;19925;-61
2023/05/29 00:25:18;;;;;;;1.58;0.52;;;21.10;68.30;;;;;;7408163;19;19923;-62
2023/05/29 00:27:47;;;;;;;2.25;0.50;;;21.10;68.40;;;;;;7408241;19;20279;-61
2023/05/29 00:30:16;;;;;;;1.38;0.30;;;21.10;68.40;;;;;;7407961;19;19926;-61
2023/05/29 00:32:48;;;;;;;3.40;0.43;;;21.10;68.50;;;;;;7402414;19;19986;-61
2023/05/29 00:35:17;;;;;;;2.65;0.40;;;21.10;68.50;;;;;;7408060;19;19966;-62
2023/05/29 00:37:46;;;;;;;1.50;0.40;;;21.00;68.50;;;;;;7406968;19;19986;-63
2023/05/29 00:40:15;;;;;;;1.92;0.50;;;21.00;68.50;;;;;;7408365;19;20307;-61
2023/05/29 00:42:44;;;;;;;1.98;0.70;;;21.00;68.50;;;;;;7407451;19;19918;-61
2023/05/29 00:45:13;;;;;;;2.30;0.47;;;21.00;68.60;;;;;;7407244;19;19974;-62
2023/05/29 00:47:43;;;;;;;2.97;0.70;;;21.00;68.60;;;;;;7403990;19;19922;-61
2023/05/29 00:50:17;;;;;;;1.70;0.65;;;20.90;68.60;;;;;;7405129;19;19911;-61
2023/05/29 00:52:48;;;;;;;2.00;0.47;;;20.90;68.60;;;;;;7404391;19;19946;-61
2023/05/29 00:55:17;;;;;;;1.90;0.40;;;20.90;68.60;;;;;;7407721;19;19921;-62
2023/05/29 00:57:47;;;;;;;1.80;0.52;;;20.90;68.60;;;;;;7406365;19;19910;-63
2023/05/29 01:00:18;;;;;;;2.95;0.47;;;20.90;68.60;;;;;;7405746;19;19915;-61
2023/05/29 01:02:48;;;;;;;2.15;0.40;;;20.90;68.70;;;;;;7406852;19;19919;-61
2023/05/29 01:05:20;;;;;;;1.77;0.30;;;20.90;68.70;;;;;;7405625;19;19923;-61
2023/05/29 01:07:50;;;;;;;1.55;0.50;;;20.90;68.70;;;;;;7406705;19;19919;-61
2023/05/29 01:10:19;;;;;;;2.28;0.30;;;20.80;68.60;;;;;;7406977;19;19974;-62
2023/05/29 01:12:54;;;;;;;3.83;0.73;;;20.90;68.80;;;;;;7403492;19;19948;-61
2023/05/29 01:15:33;;;;;;;2.47;0.40;;;20.80;68.70;;;;;;7405961;19;19997;-61
2023/05/29 01:18:19;;;;;;;2.63;0.47;;;20.80;68.80;;;;;;7405537;19;19930;-61
2023/05/29 01:20:56;;;;;;;2.35;0.35;;;20.80;68.80;;;;;;7404602;19;19978;-61
2023/05/29 01:23:51;;;;;;;1.70;0.35;;;20.80;68.80;;;;;;7403860;19;19958;-61
2023/05/29 01:26:54;;;;;;;1.98;0.50;;;20.80;68.80;;;;;;7405622;19;19943;-61
2023/05/29 01:29:27;;;;;;;1.50;0.63;;;20.70;68.80;;;;;;7405183;19;19978;-62
2023/05/29 01:31:57;;;;;;;2.45;0.35;;;20.70;68.80;;;;;;7405045;19;19922;-62
2023/05/29 01:34:25;;;;;;;;;;;20.70;68.80;;;;;;7408659;19;19986;-61
2023/05/29 01:36:54;;;;;;;2.30;0.32;;;20.70;68.80;;;;;;7405247;19;20368;-61
2023/05/29 01:39:24;;;;;;;2.45;0.47;;;20.70;68.90;;;;;;7404798;19;19931;-62
2023/05/29 01:41:56;;;;;;;1.20;0.35;;;20.60;68.80;;;;;;7405951;19;19911;-62
2023/05/29 01:44:26;;;;;;;1.52;0.30;;;20.60;68.80;;;;;;7406360;19;19918;-62
2023/05/29 01:46:56;;;;;;;1.90;0.50;;;20.60;68.90;;;;;;7402841;19;19950;-62
2023/05/29 01:49:27;;;;;;;3.25;0.52;;;20.60;68.90;;;;;;7405346;19;19926;-61
2023/05/29 01:51:56;;;;;;;2.45;0.50;;;20.60;69.00;;;;;;7404271;19;19923;-61
2023/05/29 01:54:25;;;;;;;3.33;0.52;;;20.60;69.00;;;;;;7406420;19;19930;-61
2023/05/29 01:56:57;;;;;;;2.78;0.50;;;20.60;68.90;;;;;;7404533;19;19919;-61
2023/05/29 01:59:27;;;;;;;2.80;0.60;;;20.60;69.00;;;;;;7405208;19;20297;-61
2023/05/29 02:01:56;;;;;;;1.38;0.30;;;20.60;69.00;;;;;;7404617;19;20017;-62
2023/05/29 02:04:27;;;;;;;2.17;0.50;;;20.60;68.90;;;;;;7405959;19;20009;-61
2023/05/29 02:06:56;;;;;;;2.22;0.50;;;20.60;68.90;;;;;;7404213;19;19919;-61
2023/05/29 02:09:26;;;;;;;1.13;0.35;;;20.50;68.80;;;;;;7402812;19;20377;-61
2023/05/29 02:11:57;;;;;;;1.58;0.40;;;20.50;68.80;;;;;;7403277;19;20023;-62
2023/05/29 02:14:27;;;;;;;1.75;0.43;;;20.50;68.90;;;;;;7404457;19;19919;-61
2023/05/29 02:16:57;;;;;;;2.30;0.45;;;20.50;68.90;;;;;;7404481;19;19931;-61
2023/05/29 02:19:26;;;;;;;2.88;0.35;;;20.50;69.60;;;;;;7403244;19;19942;-61
2023/05/29 02:21:55;;;;;;;;;;;20.40;68.90;;;;;;7406374;19;19918;-61
2023/05/29 02:24:27;;;;;;;2.70;0.82;;;20.50;69.00;;;;;;7403978;19;19924;-61
2023/05/29 02:26:59;;;;;;;1.95;0.68;;;20.40;69.00;;;;;;7403883;19;19989;-61
2023/05/29 02:29:28;;;;;;;1.35;0.32;;;20.40;69.00;;;;;;7403384;19;19961;-61
2023/05/29 02:31:57;;;;;;;2.33;0.25;;;20.40;69.00;;;;;;7403184;19;19925;-61
2023/05/29 02:34:26;;;;;;;3.08;0.57;;;20.40;69.10;;;;;;7403298;19;19931;-62
2023/05/29 02:36:55;;;;;;;2.15;0.40;;;20.30;69.10;;;;;;7404227;19;19922;-62
2023/05/29 02:39:26;;;;;;;2.05;0.52;;;20.30;69.10;;;;;;7403075;19;19922;-62
2023/05/29 02:41:55;;;;;;;2.05;0.30;;;20.30;69.10;;;;;;7401134;19;19922;-61
2023/05/29 02:44:27;;;;;;;2.40;0.68;;;20.30;69.10;;;;;;7402914;19;19926;-61
2023/05/29 02:46:56;;;;;;;2.63;0.40;;;20.30;69.10;;;;;;7403562;19;19921;-61
2023/05/29 02:49:25;;;;;;;1.58;0.32;;;20.30;69.10;;;;;;7402128;19;19938;-62
2023/05/29 02:51:56;;;;;;;1.83;0.35;;;20.30;69.20;;;;;;7404233;19;20349;-62
2023/05/29 02:54:25;;;;;;;1.90;0.32;;;20.30;69.20;;;;;;7402823;19;20340;-61
2023/05/29 02:56:54;;;;;;;1.65;0.30;;;20.30;69.20;;;;;;7402034;19;19915;-61
2023/05/29 02:59:23;;;;;;;2.28;0.32;;;20.30;69.10;;;;;;7402524;19;19995;-62
2023/05/29 03:01:55;;;;;;;1.55;0.32;;;20.30;69.10;;;;;;7402940;19;19925;-61
2023/05/29 03:04:24;;;;;;;1.25;0.28;;;20.30;69.20;;;;;;7403228;19;19990;-61
2023/05/29 03:06:54;;;;;;;3.05;0.40;;;20.30;69.10;;;;;;7402673;19;19918;-61
2023/05/29 03:09:23;;;;;;;1.67;0.40;;;20.30;69.10;;;;;;7402469;19;19924;-61
2023/05/29 03:11:53;;;;;;;1.95;0.70;;;20.30;69.10;;;;;;7402183;19;19919;-62
2023/05/29 03:14:22;;;;;;;2.65;0.70;;;20.30;69.10;;;;;;7401215;19;19915;-62
2023/05/29 03:16:52;;;;;;;1.40;0.60;;;20.30;69.00;;;;;;7401945;19;19918;-61
2023/05/29 03:19:24;;;;;;;1.65;0.35;;;20.20;69.00;;;;;;7400218;19;19923;-61
2023/05/29 03:21:53;;;;;;;1.35;0.35;;;20.20;69.00;;;;;;7402127;19;19918;-61
2023/05/29 03:24:23;;;;;;;1.35;0.38;;;20.20;69.10;;;;;;7402639;19;19918;-61
2023/05/29 03:26:52;;;;;;;2.30;0.65;;;20.20;69.10;;;;;;7403090;19;19939;-62
2023/05/29 03:29:21;;;;;;;2.20;0.40;;;20.20;69.10;;;;;;7402545;19;19978;-61
2023/05/29 03:31:50;;;;;;;1.70;0.52;;;20.20;69.20;;;;;;7402100;19;19926;-61
2023/05/29 03:34:20;;;;;;;3.25;0.40;;;20.20;69.20;;;;;;7400750;19;19923;-62
2023/05/29 03:36:51;;;;;;;2.13;0.30;;;20.20;69.10;;;;;;7402557;19;19931;-61
2023/05/29 03:39:20;;;;;;;3.08;0.40;;;20.10;69.20;;;;;;7403268;19;19922;-61
2023/05/29 03:41:49;;;;;;;1.63;0.73;;;20.10;69.10;;;;;;7402483;19;19990;-62
2023/05/29 03:44:18;;;;;;;2.65;0.52;;;20.10;69.10;;;;;;7401954;19;19923;-61
2023/05/29 03:46:47;;;;;;;1.98;0.43;;;20.10;69.30;;;;;;7401368;19;19926;-61
2023/05/29 03:49:16;;;;;;;1.45;0.30;;;20.10;69.20;;;;;;7399318;19;19929;-61
2023/05/29 03:51:45;;;;;;;2.78;0.43;;;20.10;69.10;;;;;;7401093;19;20282;-61
2023/05/29 03:54:17;;;;;;;1.50;0.40;;;20.10;69.20;;;;;;7400896;19;19946;-61
2023/05/29 03:56:46;;;;;;;1.48;0.35;;;20.10;69.10;;;;;;7401501;19;19947;-62
2023/05/29 03:59:15;;;;;;;2.95;0.50;;;20.10;69.10;;;;;;7400789;19;19986;-62
2023/05/29 04:01:44;;;;;;;1.63;0.25;;;20.10;69.10;;;;;;7399682;19;19950;-62
2023/05/29 04:04:13;;;;;;;1.33;0.40;;;20.20;69.10;;;;;;7399427;19;19923;-62
2023/05/29 04:06:42;;;;;;;1.92;0.40;;;20.10;69.10;;;;;;7400177;19;19925;-62
2023/05/29 04:09:11;;;;;;;3.13;0.28;;;20.10;69.00;;;;;;7401022;19;19969;-61
2023/05/29 04:11:44;;;;;;;3.15;0.60;;;20.10;69.00;;;;;;7404815;19;19978;-61
2023/05/29 04:14:14;;;;;;;2.30;0.30;;;20.10;69.00;;;;;;7406179;19;19925;-61
2023/05/29 04:16:43;;;;;;;2.88;0.57;;;20.10;69.10;;;;;;7408013;19;20245;-62
2023/05/29 04:19:12;;;;;;;2.13;0.30;;;20.10;69.10;;;;;;7406838;19;19910;-61
2023/05/29 04:21:41;;;;;;;2.35;0.40;;;20.10;69.10;;;;;;7407692;19;19922;-62
2023/05/29 04:24:10;;;;;;;2.95;0.50;;;20.10;69.00;;;;;;7405980;19;19918;-61
2023/05/29 04:26:43;;;;;;;;;;;20.00;69.00;;;;;;7408778;19;19924;-61
2023/05/29 04:29:12;;;;;;;1.58;0.30;;;20.10;69.10;;;;;;7406653;19;19922;-62
2023/05/29 04:31:41;;;;;;;2.10;0.40;;;20.00;69.10;;;;;;7406467;19;20006;-61
2023/05/29 04:34:10;;;;;;;2.05;0.73;;;20.00;69.10;;;;;;7404380;19;19918;-61
2023/05/29 04:36:40;;;;;;;2.33;0.40;;;20.00;69.10;;;;;;7406780;19;19931;-61
2023/05/29 04:39:11;;;;;;;1.13;0.22;;;20.00;69.00;;;;;;7407783;19;20229;-61
2023/05/29 04:41:43;;;;;;;1.63;0.40;;;20.00;69.00;;;;;;7406245;19;19918;-61
2023/05/29 04:44:13;;;;;;;2.25;0.43;;;20.00;69.00;;;;;;7406234;19;19944;-61
2023/05/29 04:46:43;;;;;;;3.15;0.50;;;20.00;69.00;;;;;;7407532;19;19997;-62
2023/05/29 04:49:12;;;;;;;1.55;0.30;;;20.00;69.00;;;;;;7400047;19;19919;-61
2023/05/29 04:51:42;;;;;;;2.38;0.30;;;20.00;69.00;;;;;;7406857;19;19930;-61
2023/05/29 04:54:12;;;;;;;1.85;0.32;;;20.00;69.00;;;;;;7403537;19;19922;-61
2023/05/29 04:56:44;;;;;;;2.38;0.45;;;20.00;69.00;;;;;;7404328;19;20368;-61
2023/05/29 04:59:13;;;;;;;1.60;0.40;;;20.00;69.00;;;;;;7405643;19;19923;-61
2023/05/29 05:01:43;;;;;;;2.03;0.30;;;20.10;69.00;;;;;;7405516;19;19918;-61
2023/05/29 05:04:12;;;;;;;1.98;0.40;;;20.10;69.00;;;;;;7405599;19;19925;-61
2023/05/29 05:06:43;;;;;;;3.45;0.40;;;20.10;68.90;;;;;;7405004;19;19919;-61
2023/05/29 05:09:12;;;;;;;2.67;0.30;;;20.10;68.90;;;;;;7406207;19;19923;-61
2023/05/29 05:11:44;;;;;;;1.40;0.22;;;20.10;68.80;;;;;;7405558;19;19922;-62
2023/05/29 05:14:14;;;;;;;1.63;0.32;;;20.10;68.80;;;;;;7404544;19;19927;-61
2023/05/29 05:16:43;;;;;;;1.73;0.50;;;20.10;68.80;;;;;;7405602;19;19922;-61
2023/05/29 05:19:12;;;;;;;1.40;0.52;;;20.10;68.90;;;;;;7404854;19;19994;-61
2023/05/29 05:21:41;;;;;;;2.05;0.32;;;20.10;68.80;;;;;;7399712;19;20249;-62
2023/05/29 05:24:10;;;;;;;2.05;0.30;;;20.10;68.80;;;;;;7404665;19;19935;-61
2023/05/29 05:26:39;;;;;;;1.95;0.30;;;20.10;68.70;;;;;;7405439;19;19939;-61
2023/05/29 05:29:11;;;;;;;1.65;0.25;;;20.10;68.80;;;;;;7405152;19;19928;-61
2023/05/29 05:31:40;;;;;;;1.10;0.40;;;20.10;68.80;;;;;;7406019;19;20276;-62
2023/05/29 05:34:09;;;;;;;1.42;0.30;;;20.10;68.80;;;;;;7405175;19;19922;-61
2023/05/29 05:36:38;;;;;;;1.55;0.20;;;20.10;68.70;;;;;;7406217;19;20349;-61
2023/05/29 05:39:07;;;;;;;2.00;0.20;;;20.10;68.60;;;;;;7403327;19;19923;-62
2023/05/29 05:41:36;;;;;;;1.95;0.40;;;20.10;68.60;;;;;;7404457;19;20348;-61
2023/05/29 05:44:05;;;;;;;2.50;0.30;;;20.10;68.70;;;;;;7406132;19;19982;-61
2023/05/29 05:46:37;;;;;;;1.83;0.22;;;20.10;68.60;;;;;;7405723;19;20443;-61
2023/05/29 05:49:06;;;;;;;2.38;0.30;;;20.20;68.50;;;;;;7402431;19;19914;-61
2023/05/29 05:51:35;;;;;;;1.35;0.30;;;20.10;68.50;;;;;;7403996;19;20326;-61
2023/05/29 05:54:04;;;;;;;1.95;0.30;;;20.20;68.50;;;;;;7403075;19;20348;-62
2023/05/29 05:56:33;;;;;;;1.52;0.30;;;20.20;68.50;;;;;;7403389;19;20285;-61
2023/05/29 05:59:02;;;;;;;1.98;0.22;;;20.20;68.50;;;;;;7405184;19;19963;-60
2023/05/29 06:01:31;;;;;;;1.95;0.30;;;20.20;68.50;;;;;;7404345;19;19926;-61
2023/05/29 06:04:02;;;;;;;1.60;0.22;;;20.20;68.50;;;;;;7404229;19;19935;-61
2023/05/29 06:06:31;;;;;;;1.85;0.22;;;20.20;68.50;;;;;;7404715;19;20344;-61
2023/05/29 06:09:00;;;;;;;2.47;0.38;;;20.30;68.50;;;;;;7405085;19;19914;-62
2023/05/29 06:11:29;;;;;;;1.40;0.20;;;20.30;68.40;;;;;;7403306;19;19929;-62
2023/05/29 06:13:58;;;;;;;2.15;0.43;;;20.30;68.40;;;;;;7403581;19;20255;-61
2023/05/29 06:16:28;;;;;;;1.73;0.20;;;20.30;68.40;;;;;;7404717;19;20535;-61
2023/05/29 06:18:57;;;;;;;2.95;0.55;;;20.30;68.30;;;;;;7404653;19;19923;-62
2023/05/29 06:21:29;;;;;;;1.50;0.40;;;20.30;68.30;;;;;;7404243;19;19917;-61
2023/05/29 06:23:58;;;;;;;2.42;0.50;;;20.30;68.20;;;;;;7405125;19;19925;-61
2023/05/29 06:26:28;;;;;;;0.95;0.22;;;20.30;68.20;;;;;;7404183;19;19974;-61
2023/05/29 06:28:57;;;;;;;1.45;0.40;;;20.30;68.20;;;;;;7403987;19;19945;-61
2023/05/29 06:31:26;;;;;;;2.08;0.55;;;20.30;68.20;;;;;;7403583;19;19927;-61
2023/05/29 06:33:56;;;;;;;2.20;0.30;;;20.30;68.10;;;;;;7402665;19;19922;-62
2023/05/29 06:36:28;;;;;;;2.72;0.38;;;20.40;68.20;;;;;;7403535;19;19946;-61
2023/05/29 06:38:57;;;;;;;0.90;0.25;;;20.40;68.10;;;;;;7403135;19;19924;-62
2023/05/29 06:41:26;;;;;;;1.60;0.40;;;20.40;68.00;;;;;;7403672;19;19926;-61
2023/05/29 06:43:55;;;;;;;1.77;0.55;;;20.40;68.00;;;;;;7401372;19;19982;-61
2023/05/29 06:46:24;;;;;;;3.33;0.50;;;20.50;68.00;;;;;;7403438;19;19942;-62
2023/05/29 06:48:53;;;;;;;2.70;0.57;;;20.50;68.00;;;;;;7401831;19;19953;-62
2023/05/29 06:51:23;;;;;;;1.75;0.25;;;20.40;67.80;;;;;;7404172;19;19915;-61
2023/05/29 06:53:54;;;;;;;2.00;0.47;;;20.50;67.80;;;;;;7402869;19;19957;-61
2023/05/29 06:56:23;;;;;;;1.20;0.30;;;20.50;67.80;;;;;;7403977;19;19914;-61
2023/05/29 06:58:52;;;;;;;1.92;0.50;;;20.50;67.80;;;;;;7402329;19;19929;-61
2023/05/29 07:01:22;;;;;;;1.38;0.40;;;20.50;67.70;;;;;;7403779;19;19939;-61
2023/05/29 07:03:54;;;;;;;;;;;20.50;67.70;;;;;;7403474;19;19934;-61
2023/05/29 07:06:23;;;;;;;1.85;0.45;;;20.60;67.80;;;;;;7401921;19;19923;-62
2023/05/29 07:08:55;;;;;;;2.13;0.35;;;20.60;67.70;;;;;;7402956;19;19922;-62
2023/05/29 07:11:24;;;;;;;1.92;0.57;;;20.60;67.60;;;;;;7403063;19;19927;-61
2023/05/29 07:13:53;;;;;;;3.00;0.40;;;20.60;67.60;;;;;;7402037;19;20404;-62
2023/05/29 07:16:22;;;;;;;1.80;0.50;;;20.60;67.60;;;;;;7402088;19;19943;-61
2023/05/29 07:18:51;;;;;;;;;;;20.60;67.60;;;;;;7403570;19;19927;-62
2023/05/29 07:21:20;;;;;;;0.73;0.13;;;20.60;67.60;;;;;;7403033;19;19927;-62
2023/05/29 07:23:49;;;;;;;1.67;0.30;;;20.60;67.50;;;;;;7402665;19;19966;-62
2023/05/29 07:26:22;;;;;;;1.30;0.20;;;20.70;67.60;;;;;;7403747;19;20339;-62
2023/05/29 07:28:52;;;;;;;1.98;0.30;;;20.70;67.50;;;;;;7400581;19;20267;-62
2023/05/29 07:31:20;;;;;;;2.13;0.40;;;20.70;67.50;;;;;;7401387;19;19922;-62
2023/05/29 07:33:49;;;;;;;2.40;0.30;;;20.70;67.40;;;;;;7401907;19;19978;-62
2023/05/29 07:36:19;;;;;;;1.27;0.32;;;20.70;67.40;;;;;;7401003;19;19926;-61
2023/05/29 07:38:48;;;;;;;;;;;20.70;67.40;;;;;;7404896;19;20477;-62
2023/05/29 07:41:21;;;;;;;1.98;0.30;;;20.70;67.30;;;;;;7400948;19;19927;-62
2023/05/29 07:43:52;;;;;;;2.28;0.22;;;20.80;67.40;;;;;;7402559;19;19970;-62
2023/05/29 07:46:20;;;;;;;2.20;0.30;;;20.80;67.30;;;;;;7405337;19;19922;-61
2023/05/29 07:48:50;;;;;;;2.10;0.32;;;20.80;67.20;;;;;;7406671;19;19954;-62
2023/05/29 07:51:19;;;;;;;2.35;0.28;;;20.80;67.20;;;;;;7408662;19;19927;-62
2023/05/29 07:53:48;;;;;;;1.33;0.45;;;20.80;67.20;;;;;;7406458;19;19920;-61
2023/05/29 07:56:17;;;;;;;1.42;0.50;;;20.80;67.20;;;;;;7408060;19;19926;-62
2023/05/29 07:58:49;;;;;;;1.80;0.30;;;20.80;67.10;;;;;;7406962;19;19948;-61
2023/05/29 08:01:18;;;;;;;1.90;0.52;;;20.90;67.20;;;;;;7408781;19;19936;-62
2023/05/29 08:03:48;;;;;;;1.23;0.20;;;20.90;67.10;;;;;;7408071;19;19923;-62
2023/05/29 08:06:17;;;;;;;1.58;0.60;;;20.90;67.00;;;;;;7405969;19;19985;-62
2023/05/29 08:08:46;;;;;;;1.83;0.40;;;20.90;67.00;;;;;;7408156;19;20328;-62
2023/05/29 08:11:15;;;;;;;1.65;0.20;;;20.90;66.90;;;;;;7406892;19;19926;-62
2023/05/29 08:13:44;;;;;;;1.85;0.22;;;20.90;66.80;;;;;;7407690;19;19982;-62
2023/05/29 08:16:16;;;;;;;1.40;0.20;;;20.90;66.80;;;;;;7407842;19;19925;-62
2023/05/29 08:18:45;;;;;;;1.55;0.25;;;21.00;66.80;;;;;;7407190;19;19922;-62
2023/05/29 08:21:15;;;;;;;2.17;0.47;;;21.00;66.80;;;;;;7407506;19;20408;-62
2023/05/29 08:23:44;;;;;;;1.45;0.30;;;21.00;66.70;;;;;;7407673;19;19944;-62
2023/05/29 08:26:13;;;;;;;1.73;0.38;;;21.00;67.00;;;;;;7408290;19;20345;-62
2023/05/29 08:28:42;;;;;;;1.35;0.22;;;21.00;66.70;;;;;;7407228;19;19935;-62
2023/05/29 08:31:11;;;;;;;1.23;0.30;;;21.10;66.70;;;;;;7407064;19;19922;-62
2023/05/29 08:33:43;;;;;;;1.60;0.40;;;21.10;66.70;;;;;;7406836;19;19923;-62
2023/05/29 08:36:12;;;;;;;1.90;0.35;;;21.00;66.50;;;;;;7403208;19;19977;-62
2023/05/29 08:38:41;;;;;;;2.05;0.50;;;21.10;66.60;;;;;;7406388;19;19923;-62
2023/05/29 08:41:11;;;;;;;1.20;0.22;;;21.20;66.60;;;;;;7406743;19;19922;-62
2023/05/29 08:43:43;;;;;;;3.42;0.40;;;21.20;66.50;;;;;;7406148;19;19943;-62
2023/05/29 08:46:13;;;;;;;2.05;0.43;;;21.20;66.50;;;;;;7406544;19;19923;-62
2023/05/29 08:48:49;;;;;;;2.20;0.30;;;21.20;66.40;;;;;;7403694;19;19922;-62
2023/05/29 08:51:22;;;;;;;1.35;0.30;;;21.20;66.40;;;;;;7406897;19;19928;-62
2023/05/29 08:53:53;;;;;;;1.23;0.20;;;21.30;66.40;;;;;;7406319;19;19918;-62
2023/05/29 08:56:22;;;;;;;2.05;0.30;;;21.30;66.30;;;;;;7403803;19;20393;-62
2023/05/29 08:58:52;;;;;;;1.63;0.35;;;21.30;66.20;;;;;;7406234;19;19922;-63
2023/05/29 09:01:22;;;;;;;1.40;0.30;;;21.30;66.20;;;;;;7405905;19;20282;-62
2023/05/29 09:03:54;;;;;;;1.58;0.30;;;21.30;66.10;;;;;;7406250;19;19907;-62
2023/05/29 09:06:25;;;;;;;2.33;0.50;;;21.30;66.10;;;;;;7406923;19;20348;-62
2023/05/29 09:08:55;;;;;;;1.92;0.57;;;21.40;66.10;;;;;;7406457;19;19932;-63
2023/05/29 09:11:25;;;;;;;2.15;0.57;;;21.40;66.10;;;;;;7404256;19;20002;-62
2023/05/29 09:13:57;;;;;;;1.58;0.50;;;21.40;66.00;;;;;;7406147;19;19915;-63
2023/05/29 09:16:26;;;;;;;2.00;0.40;;;21.40;66.00;;;;;;7402980;19;19914;-62
2023/05/29 09:19:07;;;;;;;2.67;0.32;;;21.40;66.00;;;;;;7406382;19;20366;-62
2023/05/29 09:21:38;;;;;;;;;;;21.40;66.00;;;;;;7409241;19;19918;-62
2023/05/29 09:24:07;;;;;;;1.65;0.20;;;21.40;66.00;;;;;;7407213;19;19970;-62
2023/05/29 09:26:36;;;;;;;;;;;21.40;65.90;;;;;;7407491;19;19978;-62
2023/05/29 09:29:06;;;;;;;1.92;0.28;;;21.50;66.00;;;;;;7405565;19;19918;-63
2023/05/29 09:31:38;;;;;;;1.48;0.40;;;21.50;66.00;;;;;;7405702;19;19974;-62
2023/05/29 09:34:10;;;;;;;1.33;0.35;;;21.50;65.90;;;;;;7403097;19;20327;-62
2023/05/29 09:36:41;;;;;;;2.13;0.22;;;21.50;65.90;;;;;;7401851;19;19922;-62
2023/05/29 09:39:14;;;;;;;2.22;0.40;;;21.60;65.90;;;;;;7404993;19;19926;-62
2023/05/29 09:41:44;;;;;;;1.33;0.20;;;21.60;65.90;;;;;;7404293;19;19942;-62
2023/05/29 09:44:15;;;;;;;1.60;0.50;;;21.60;65.80;;;;;;7405012;19;19919;-62
2023/05/29 09:46:46;;;;;;;1.30;0.50;;;21.60;65.80;;;;;;7404594;19;19918;-62
2023/05/29 09:49:17;;;;;;;2.17;0.40;;;21.60;65.80;;;;;;7403547;19;19911;-62
2023/05/29 09:51:50;;;;;;;2.08;0.47;;;21.60;65.80;;;;;;7405139;19;19922;-61
2023/05/29 09:54:20;;;;;;;1.13;0.20;;;21.60;65.70;;;;;;7404995;19;19994;-62
2023/05/29 09:56:50;;;;;;;1.20;0.25;;;21.70;65.70;;;;;;7405155;19;20637;-63
2023/05/29 09:59:21;;;;;;;1.00;0.20;;;21.70;65.80;;;;;;7403690;19;20336;-62
2023/05/29 10:01:50;;;;;;;1.73;0.35;;;21.70;65.70;;;;;;7404011;19;20598;-62
2023/05/29 10:04:24;;;;;;;1.90;0.22;;;21.70;65.70;;;;;;7401619;19;20664;-62
2023/05/29 10:06:54;;;;;;;2.10;0.30;;;21.70;65.70;;;;;;7403509;19;19918;-63
2023/05/29 10:09:25;;;;;;;3.30;0.45;;;21.70;65.70;;;;;;7403315;19;19926;-62
2023/05/29 10:11:57;;;;;;;2.50;0.32;;;21.70;65.70;;;;;;7404290;19;20314;-63
2023/05/29 10:14:31;;;;;;;1.92;0.30;;;21.80;65.70;;;;;;7404615;19;20336;-62
2023/05/29 10:17:04;;;;;;;1.60;0.30;;;21.80;65.70;;;;;;7404262;19;19917;-62
2023/05/29 10:19:40;;;;;;;1.38;0.50;;;21.80;65.60;;;;;;7404403;19;19919;-64
2023/05/29 10:22:11;;;;;;;1.20;0.30;;;21.80;65.60;;;;;;7404086;19;19935;-62
2023/05/29 10:24:40;;;;;;;;;;;21.80;65.60;;;;;;7406839;19;19923;-62
2023/05/29 10:27:09;;;;;;;1.10;0.32;;;21.80;65.50;;;;;;7404880;19;19938;-63
2023/05/29 10:29:42;;;;;;;2.17;0.52;;;21.80;65.50;;;;;;7404311;19;19929;-62
2023/05/29 10:32:23;;;;;;;1.27;0.32;;;21.90;65.50;;;;;;7402864;19;19918;-61
2023/05/29 10:35:03;;;;;;;2.28;0.35;;;21.80;65.50;;;;;;7401839;19;20421;-63
2023/05/29 10:37:39;;;;;;;1.50;0.47;;;21.90;65.50;;;;;;7403228;19;20295;-62
2023/05/29 10:40:12;;;;;;;1.85;0.47;;;21.90;65.50;;;;;;7404825;19;19918;-62
2023/05/29 10:42:49;;;;;;;1.95;0.30;;;21.90;65.50;;;;;;7402550;19;19954;-62
2023/05/29 10:45:51;;;;;;;1.50;0.50;;;21.90;65.50;;;;;;7404354;19;20274;-62
2023/05/29 10:48:43;;;;;;;1.83;0.38;;;21.90;65.50;;;;;;7400298;19;19950;-62
2023/05/29 10:51:28;;;;;;;2.20;0.30;;;21.90;65.50;;;;;;7401971;19;19939;-63
2023/05/29 10:53:57;;;;;;;1.50;0.40;;;22.00;65.50;;;;;;7403420;19;19930;-63
2023/05/29 10:56:32;;;;;;;1.88;0.35;;;22.00;65.40;;;;;;7402704;19;19930;-62
2023/05/29 10:59:03;;;;;;;1.70;0.30;;;22.00;65.50;;;;;;7402469;19;20442;-62
2023/05/29 11:01:33;;;;;;;1.38;0.28;;;22.00;65.40;;;;;;7402803;19;19990;-62
2023/05/29 11:04:34;;;;;;;1.67;0.32;;;22.00;65.40;;;;;;7403214;19;19947;-62
2023/05/29 11:07:08;;;;;;;;;;;22.00;65.40;;;;;;7404835;19;20268;-63
2023/05/29 11:09:39;;;;;;;2.17;0.30;;;22.10;65.40;;;;;;7402867;19;19911;-62
2023/05/29 11:12:33;;;;;;;1.52;0.30;;;22.10;65.40;;;;;;7401905;19;19922;-63
2023/05/29 11:15:06;;;;;;;1.92;0.35;;;22.10;65.40;;;;;;7402459;19;19923;-62
2023/05/29 11:17:46;;;;;;;1.73;0.32;;;22.10;65.30;;;;;;7401980;19;19922;-63
2023/05/29 11:20:30;;;;;;;2.15;0.30;;;22.10;65.30;;;;;;7398932;19;19938;-63
2023/05/29 11:23:08;;;;;;;1.58;0.20;;;22.20;65.30;;;;;;7402025;19;19927;-62
2023/05/29 11:25:39;;;;;;;1.30;0.25;;;22.20;65.30;;;;;;7401865;19;19915;-63
2023/05/29 11:28:10;;;;;;;1.67;0.28;;;22.20;65.30;;;;;;7401591;19;19946;-62
2023/05/29 11:30:47;;;;;;;2.88;0.40;;;22.20;65.20;;;;;;7402252;19;20423;-62
2023/05/29 11:33:26;;;;;;;1.23;0.38;;;22.30;65.20;;;;;;7402290;19;19986;-62
2023/05/29 11:36:00;;;;;;;2.03;0.30;;;22.30;65.20;;;;;;7401739;19;19945;-62
2023/05/29 11:38:33;;;;;;;1.67;0.20;;;22.30;65.10;;;;;;7402690;19;19919;-62
2023/05/29 11:41:04;;;;;;;1.88;0.40;;;22.30;65.10;;;;;;7401265;19;19974;-63
2023/05/29 11:43:34;;;;;;;1.48;0.50;;;22.40;65.10;;;;;;7402717;19;20360;-62
2023/05/29 11:46:04;;;;;;;1.55;0.63;;;22.30;65.00;;;;;;7401988;19;19918;-63
2023/05/29 11:48:33;;;;;;;1.63;0.50;;;22.40;65.00;;;;;;7400822;19;20550;-63
2023/05/29 11:51:07;;;;;;;3.33;0.50;;;22.40;64.90;;;;;;7400863;19;19926;-62
2023/05/29 11:53:38;;;;;;;1.25;0.30;;;22.40;64.90;;;;;;7400782;19;19922;-62
2023/05/29 11:56:11;;;;;;;1.98;0.52;;;22.40;64.90;;;;;;7399239;19;19926;-63
2023/05/29 11:58:41;;;;;;;2.08;0.47;;;22.40;64.80;;;;;;7401214;19;19922;-63
2023/05/29 12:01:10;;;;;;;2.97;0.40;;;22.40;64.80;;;;;;7401921;19;19919;-63
2023/05/29 12:03:42;;;;;;;2.65;0.45;;;22.50;64.80;;;;;;7401699;19;20432;-63
2023/05/29 12:06:12;;;;;;;1.52;0.30;;;22.50;64.80;;;;;;7402393;19;19925;-63
2023/05/29 12:08:44;;;;;;;2.38;0.50;;;22.50;65.50;;;;;;7401607;19;19922;-63
2023/05/29 12:11:12;;;;;;;1.73;0.32;;;22.50;64.80;;;;;;7400891;19;19937;-62
2023/05/29 12:13:42;;;;;;;2.30;0.32;;;22.50;64.80;;;;;;7401834;19;20161;-63
2023/05/29 12:16:11;;;;;;;1.63;0.38;;;22.60;64.80;;;;;;7398986;19;19922;-63
2023/05/29 12:18:40;;;;;;;1.75;0.55;;;22.60;64.80;;;;;;7398956;19;19930;-62
2023/05/29 12:21:09;;;;;;;1.88;0.65;;;22.60;64.70;;;;;;7400534;19;19926;-63
2023/05/29 12:23:43;;;;;;;2.20;0.45;;;22.60;64.70;;;;;;7400454;19;19921;-63
2023/05/29 12:26:12;;;;;;;1.40;0.40;;;22.60;64.60;;;;;;7399749;19;19930;-62
2023/05/29 12:28:46;;;;;;;2.22;0.30;;;22.70;64.60;;;;;;7399930;19;19966;-62
2023/05/29 12:31:30;;;;;;;1.60;0.50;;;22.70;64.60;;;;;;7400989;19;20386;-63
2023/05/29 12:34:03;;;;;;;;;;;22.70;64.60;;;;;;7407835;19;19922;-63
2023/05/29 12:36:33;;;;;;;1.75;0.40;;;22.70;64.60;;;;;;7406437;19;19919;-63
2023/05/29 12:39:09;;;;;;;0.93;0.20;;;22.80;64.60;;;;;;7406369;19;19918;-62
2023/05/29 12:41:41;;;;;;;2.47;0.40;;;22.80;64.50;;;;;;7406726;19;20348;-63
2023/05/29 12:44:10;;;;;;;1.58;0.30;;;22.80;64.30;;;;;;7406627;19;19922;-63
2023/05/29 12:46:42;;;;;;;1.85;0.40;;;22.80;64.40;;;;;;7407139;19;19915;-63
2023/05/29 12:49:16;;;;;;;1.27;0.32;;;22.80;64.30;;;;;;7403594;19;20265;-62
2023/05/29 12:51:46;;;;;;;1.58;0.38;;;22.90;64.30;;;;;;7404843;19;20009;-63
2023/05/29 12:54:19;;;;;;;1.90;0.40;;;22.90;64.30;;;;;;7406349;19;19931;-63
2023/05/29 12:56:50;;;;;;;1.52;0.40;;;22.90;64.30;;;;;;7404937;19;19964;-63
2023/05/29 12:59:19;;;;;;;2.20;0.30;;;22.90;64.20;;;;;;7406005;19;20360;-63
2023/05/29 13:01:48;;;;;;;1.25;0.43;;;22.90;64.80;;;;;;7405866;19;19918;-63
2023/05/29 13:04:17;;;;;;;2.45;0.47;;;23.00;64.20;;;;;;7406011;19;19918;-63
2023/05/29 13:06:48;;;;;;;2.38;0.30;;;23.00;64.10;;;;;;7407220;19;19952;-63
2023/05/29 13:09:19;;;;;;;1.40;0.22;;;23.00;64.00;;;;;;7405891;19;19994;-63